Berwick, Illinois
Current Conditions -  °F | °C
As of 8:55 PM on Monday 22 Dec 2014 (Local Time) from KGBG Reporting Station
Haze Haze  
Wind Chill: 39°   Ceiling: 200
Heat Index: 43°   Visibility: 2.5mi
Dew Point: 42°   Wind: 6mph
Humidity: 99%   Direction: 110°ESE
Pressure: 29.5"   Gusts: NA
Location:  40.8°N, 90.54°W
Report Text: KGBG 230255Z AUTO 11005KT 2 1/2SM BR OVC002 06/06 A2950 RMK AO2 T00600058
Loading
Personal Weather Stations






























Interactive Weather Map New forecast layout! Learn more

10-Day Weather Forecast

Advertisements
Track Severe Weather on mobile